sensor_id;sensor_type;location;lat;lon;timestamp;temperature;humidity
52203;DHT22;38173;52.850;6.970;2023-07-13T00:00:36;15.00;99.90
52203;DHT22;38173;52.850;6.970;2023-07-13T00:03:03;15.00;99.90
52203;DHT22;38173;52.850;6.970;2023-07-13T00:05:35;15.00;99.90
52203;DHT22;38173;52.850;6.970;2023-07-13T00:08:04;15.00;99.90
52203;DHT22;38173;52.850;6.970;2023-07-13T00:10:30;15.10;99.90
52203;DHT22;38173;52.850;6.970;2023-07-13T00:12:57;15.10;99.90
52203;DHT22;38173;52.850;6.970;2023-07-13T00:15:25;15.10;99.90
52203;DHT22;38173;52.850;6.970;2023-07-13T00:17:53;15.10;99.90
52203;DHT22;38173;52.850;6.970;2023-07-13T00:20:20;15.00;99.90
52203;DHT22;38173;52.850;6.970;2023-07-13T00:22:52;15.00;99.90
52203;DHT22;38173;52.850;6.970;2023-07-13T00:25:20;15.00;99.90
52203;DHT22;38173;52.850;6.970;2023-07-13T00:27:47;15.00;99.90
52203;DHT22;38173;52.850;6.970;2023-07-13T00:30:14;15.00;99.90
52203;DHT22;38173;52.850;6.970;2023-07-13T00:32:40;14.90;99.90
52203;DHT22;38173;52.850;6.970;2023-07-13T00:35:07;15.00;99.90
52203;DHT22;38173;52.850;6.970;2023-07-13T00:37:38;15.00;99.90
52203;DHT22;38173;52.850;6.970;2023-07-13T00:40:05;14.90;99.90
52203;DHT22;38173;52.850;6.970;2023-07-13T00:42:32;14.90;99.90
52203;DHT22;38173;52.850;6.970;2023-07-13T00:47:55;15.00;99.90
52203;DHT22;38173;52.850;6.970;2023-07-13T00:50:22;15.00;99.90
52203;DHT22;38173;52.850;6.970;2023-07-13T00:52:51;15.00;99.90
52203;DHT22;38173;52.850;6.970;2023-07-13T00:55:19;15.00;99.90
52203;DHT22;38173;52.850;6.970;2023-07-13T00:57:46;15.10;99.90
52203;DHT22;38173;52.850;6.970;2023-07-13T01:00:13;15.10;99.90
52203;DHT22;38173;52.850;6.970;2023-07-13T01:02:41;15.10;99.90
52203;DHT22;38173;52.850;6.970;2023-07-13T01:05:19;15.10;99.90
52203;DHT22;38173;52.850;6.970;2023-07-13T01:07:50;15.10;99.90
52203;DHT22;38173;52.850;6.970;2023-07-13T01:10:20;15.10;99.90
52203;DHT22;38173;52.850;6.970;2023-07-13T01:12:53;15.10;99.90
52203;DHT22;38173;52.850;6.970;2023-07-13T01:15:42;15.20;99.90
52203;DHT22;38173;52.850;6.970;2023-07-13T01:18:11;15.20;99.90
52203;DHT22;38173;52.850;6.970;2023-07-13T01:20:39;15.20;99.90
52203;DHT22;38173;52.850;6.970;2023-07-13T01:23:06;15.30;99.90
52203;DHT22;38173;52.850;6.970;2023-07-13T01:25:35;15.30;99.90
52203;DHT22;38173;52.850;6.970;2023-07-13T01:28:05;15.30;99.90
52203;DHT22;38173;52.850;6.970;2023-07-13T01:30:31;15.30;99.90
52203;DHT22;38173;52.850;6.970;2023-07-13T01:32:58;15.40;99.90
52203;DHT22;38173;52.850;6.970;2023-07-13T01:35:24;15.40;99.90
52203;DHT22;38173;52.850;6.970;2023-07-13T01:37:53;15.40;99.90
52203;DHT22;38173;52.850;6.970;2023-07-13T01:40:20;15.40;99.90
52203;DHT22;38173;52.850;6.970;2023-07-13T01:42:46;15.50;99.90
52203;DHT22;38173;52.850;6.970;2023-07-13T01:45:12;15.50;99.90
52203;DHT22;38173;52.850;6.970;2023-07-13T01:47:37;15.60;99.90
52203;DHT22;38173;52.850;6.970;2023-07-13T01:50:03;15.60;99.90
52203;DHT22;38173;52.850;6.970;2023-07-13T01:52:32;15.60;99.90
52203;DHT22;38173;52.850;6.970;2023-07-13T01:54:58;15.60;99.90
52203;DHT22;38173;52.850;6.970;2023-07-13T01:57:24;15.60;99.90
52203;DHT22;38173;52.850;6.970;2023-07-13T01:59:50;15.60;99.90
52203;DHT22;38173;52.850;6.970;2023-07-13T02:02:15;15.60;99.90
52203;DHT22;38173;52.850;6.970;2023-07-13T02:04:42;15.60;99.90
52203;DHT22;38173;52.850;6.970;2023-07-13T02:07:09;15.60;99.90
52203;DHT22;38173;52.850;6.970;2023-07-13T02:09:35;15.60;99.90
52203;DHT22;38173;52.850;6.970;2023-07-13T02:12:02;15.60;99.90
52203;DHT22;38173;52.850;6.970;2023-07-13T02:14:28;15.70;99.90
52203;DHT22;38173;52.850;6.970;2023-07-13T02:16:58;15.60;99.90
52203;DHT22;38173;52.850;6.970;2023-07-13T02:19:26;15.70;99.90
52203;DHT22;38173;52.850;6.970;2023-07-13T02:21:52;15.70;99.90
52203;DHT22;38173;52.850;6.970;2023-07-13T02:24:20;15.70;99.90
52203;DHT22;38173;52.850;6.970;2023-07-13T02:26:47;15.70;99.90
52203;DHT22;38173;52.850;6.970;2023-07-13T02:29:17;15.70;99.90
52203;DHT22;38173;52.850;6.970;2023-07-13T02:31:42;15.70;99.90
52203;DHT22;38173;52.850;6.970;2023-07-13T02:34:08;15.70;99.90
52203;DHT22;38173;52.850;6.970;2023-07-13T02:36:34;15.70;99.90
52203;DHT22;38173;52.850;6.970;2023-07-13T02:39:01;15.70;99.90
52203;DHT22;38173;52.850;6.970;2023-07-13T02:41:29;15.60;99.90
52203;DHT22;38173;52.850;6.970;2023-07-13T02:43:55;15.60;99.90
52203;DHT22;38173;52.850;6.970;2023-07-13T02:46:36;15.70;99.90
52203;DHT22;38173;52.850;6.970;2023-07-13T02:49:03;15.60;99.90
52203;DHT22;38173;52.850;6.970;2023-07-13T02:51:30;15.60;99.90
52203;DHT22;38173;52.850;6.970;2023-07-13T02:53:59;15.50;99.90
52203;DHT22;38173;52.850;6.970;2023-07-13T02:56:27;15.50;99.90
52203;DHT22;38173;52.850;6.970;2023-07-13T02:58:53;15.50;99.90
52203;DHT22;38173;52.850;6.970;2023-07-13T03:01:21;15.50;99.90
52203;DHT22;38173;52.850;6.970;2023-07-13T03:03:48;15.50;99.90
52203;DHT22;38173;52.850;6.970;2023-07-13T03:06:15;15.50;99.90
52203;DHT22;38173;52.850;6.970;2023-07-13T03:08:43;15.50;99.90
52203;DHT22;38173;52.850;6.970;2023-07-13T03:11:14;15.50;99.90
52203;DHT22;38173;52.850;6.970;2023-07-13T03:13:43;15.50;99.90
52203;DHT22;38173;52.850;6.970;2023-07-13T03:16:10;15.50;99.90
52203;DHT22;38173;52.850;6.970;2023-07-13T03:18:37;15.50;99.90
52203;DHT22;38173;52.850;6.970;2023-07-13T03:21:04;15.50;99.90
52203;DHT22;38173;52.850;6.970;2023-07-13T03:23:30;15.50;99.90
52203;DHT22;38173;52.850;6.970;2023-07-13T03:26:12;15.50;99.90
52203;DHT22;38173;52.850;6.970;2023-07-13T03:28:42;15.50;99.90
52203;DHT22;38173;52.850;6.970;2023-07-13T03:31:11;15.50;99.90
52203;DHT22;38173;52.850;6.970;2023-07-13T03:33:40;15.50;99.90
52203;DHT22;38173;52.850;6.970;2023-07-13T03:36:07;15.60;99.90
52203;DHT22;38173;52.850;6.970;2023-07-13T03:38:34;15.60;99.90
52203;DHT22;38173;52.850;6.970;2023-07-13T03:41:00;15.60;99.90
52203;DHT22;38173;52.850;6.970;2023-07-13T03:43:26;15.50;99.90
52203;DHT22;38173;52.850;6.970;2023-07-13T03:45:52;15.60;99.90
52203;DHT22;38173;52.850;6.970;2023-07-13T03:48:20;15.60;99.90
52203;DHT22;38173;52.850;6.970;2023-07-13T03:50:48;15.50;99.90
52203;DHT22;38173;52.850;6.970;2023-07-13T03:53:18;15.60;99.90
52203;DHT22;38173;52.850;6.970;2023-07-13T03:55:47;15.60;99.90
52203;DHT22;38173;52.850;6.970;2023-07-13T03:58:31;15.60;99.90
52203;DHT22;38173;52.850;6.970;2023-07-13T04:00:58;15.60;99.90
52203;DHT22;38173;52.850;6.970;2023-07-13T04:03:28;15.60;99.90
52203;DHT22;38173;52.850;6.970;2023-07-13T04:06:00;15.60;99.90
52203;DHT22;38173;52.850;6.970;2023-07-13T04:08:31;15.60;99.90
52203;DHT22;38173;52.850;6.970;2023-07-13T04:10:58;15.60;99.90
52203;DHT22;38173;52.850;6.970;2023-07-13T04:13:25;15.60;99.90
52203;DHT22;38173;52.850;6.970;2023-07-13T04:15:52;15.60;99.90
52203;DHT22;38173;52.850;6.970;2023-07-13T04:18:18;15.60;99.90
52203;DHT22;38173;52.850;6.970;2023-07-13T04:20:51;15.60;99.90
52203;DHT22;38173;52.850;6.970;2023-07-13T04:23:18;15.70;99.90
52203;DHT22;38173;52.850;6.970;2023-07-13T04:25:45;15.70;99.90
52203;DHT22;38173;52.850;6.970;2023-07-13T04:28:12;15.80;99.90
52203;DHT22;38173;52.850;6.970;2023-07-13T04:30:41;15.80;99.90
52203;DHT22;38173;52.850;6.970;2023-07-13T04:33:07;15.80;99.90
52203;DHT22;38173;52.850;6.970;2023-07-13T04:35:37;15.80;99.90
52203;DHT22;38173;52.850;6.970;2023-07-13T04:38:03;15.80;99.90
52203;DHT22;38173;52.850;6.970;2023-07-13T04:40:36;15.80;99.90
52203;DHT22;38173;52.850;6.970;2023-07-13T04:43:02;15.70;99.90
52203;DHT22;38173;52.850;6.970;2023-07-13T04:45:27;15.70;99.90
52203;DHT22;38173;52.850;6.970;2023-07-13T04:47:53;15.70;99.90
52203;DHT22;38173;52.850;6.970;2023-07-13T04:50:19;15.70;99.90
52203;DHT22;38173;52.850;6.970;2023-07-13T04:52:51;15.70;99.90
52203;DHT22;38173;52.850;6.970;2023-07-13T04:55:19;15.70;99.90
52203;DHT22;38173;52.850;6.970;2023-07-13T04:57:46;15.70;99.90
52203;DHT22;38173;52.850;6.970;2023-07-13T05:00:13;15.60;99.90
52203;DHT22;38173;52.850;6.970;2023-07-13T05:02:44;15.60;99.90
52203;DHT22;38173;52.850;6.970;2023-07-13T05:05:10;15.60;99.90
52203;DHT22;38173;52.850;6.970;2023-07-13T05:07:58;15.60;99.90
52203;DHT22;38173;52.850;6.970;2023-07-13T05:10:23;15.50;99.90
52203;DHT22;38173;52.850;6.970;2023-07-13T05:12:56;15.50;99.90
52203;DHT22;38173;52.850;6.970;2023-07-13T05:15:39;15.40;99.90
52203;DHT22;38173;52.850;6.970;2023-07-13T05:18:05;15.40;99.90
52203;DHT22;38173;52.850;6.970;2023-07-13T05:20:31;15.40;99.90
52203;DHT22;38173;52.850;6.970;2023-07-13T05:22:57;15.40;99.90
52203;DHT22;38173;52.850;6.970;2023-07-13T05:25:23;15.50;99.90
52203;DHT22;38173;52.850;6.970;2023-07-13T05:27:50;15.60;99.90
52203;DHT22;38173;52.850;6.970;2023-07-13T05:30:19;15.60;99.90
52203;DHT22;38173;52.850;6.970;2023-07-13T05:33:06;15.80;99.90
52203;DHT22;38173;52.850;6.970;2023-07-13T05:35:32;15.80;99.90
52203;DHT22;38173;52.850;6.970;2023-07-13T05:37:58;15.90;99.90
52203;DHT22;38173;52.850;6.970;2023-07-13T05:40:25;16.00;99.90
52203;DHT22;38173;52.850;6.970;2023-07-13T05:42:52;16.10;99.90
52203;DHT22;38173;52.850;6.970;2023-07-13T05:45:18;16.20;99.90
52203;DHT22;38173;52.850;6.970;2023-07-13T05:47:44;16.20;99.90
52203;DHT22;38173;52.850;6.970;2023-07-13T05:50:10;16.30;99.90
52203;DHT22;38173;52.850;6.970;2023-07-13T05:52:36;16.40;99.90
52203;DHT22;38173;52.850;6.970;2023-07-13T05:55:03;16.50;99.90
52203;DHT22;38173;52.850;6.970;2023-07-13T05:57:33;16.50;99.90
52203;DHT22;38173;52.850;6.970;2023-07-13T06:00:05;16.60;99.90
52203;DHT22;38173;52.850;6.970;2023-07-13T06:02:32;16.70;99.90
52203;DHT22;38173;52.850;6.970;2023-07-13T06:04:58;16.80;99.90
52203;DHT22;38173;52.850;6.970;2023-07-13T06:07:24;16.90;99.90
52203;DHT22;38173;52.850;6.970;2023-07-13T06:09:51;17.00;99.90
52203;DHT22;38173;52.850;6.970;2023-07-13T06:12:17;17.10;99.90
52203;DHT22;38173;52.850;6.970;2023-07-13T06:14:49;17.20;99.90
52203;DHT22;38173;52.850;6.970;2023-07-13T06:17:15;17.20;99.90
52203;DHT22;38173;52.850;6.970;2023-07-13T06:19:47;17.30;99.90
52203;DHT22;38173;52.850;6.970;2023-07-13T06:22:18;17.40;99.90
52203;DHT22;38173;52.850;6.970;2023-07-13T06:24:44;17.50;99.90
52203;DHT22;38173;52.850;6.970;2023-07-13T06:27:13;17.60;99.90
52203;DHT22;38173;52.850;6.970;2023-07-13T06:29:43;17.80;99.90
52203;DHT22;38173;52.850;6.970;2023-07-13T06:32:11;17.80;99.90
52203;DHT22;38173;52.850;6.970;2023-07-13T06:34:37;17.90;99.90
52203;DHT22;38173;52.850;6.970;2023-07-13T06:37:08;18.10;99.90
52203;DHT22;38173;52.850;6.970;2023-07-13T06:39:34;18.10;99.90
52203;DHT22;38173;52.850;6.970;2023-07-13T06:42:03;18.20;99.90
52203;DHT22;38173;52.850;6.970;2023-07-13T06:44:34;18.40;99.90
52203;DHT22;38173;52.850;6.970;2023-07-13T06:47:03;18.40;99.90
52203;DHT22;38173;52.850;6.970;2023-07-13T06:49:30;18.40;99.90
52203;DHT22;38173;52.850;6.970;2023-07-13T06:51:56;18.50;99.90
52203;DHT22;38173;52.850;6.970;2023-07-13T06:54:22;18.60;99.90
52203;DHT22;38173;52.850;6.970;2023-07-13T06:56:51;18.70;99.90
52203;DHT22;38173;52.850;6.970;2023-07-13T06:59:30;18.70;99.90
52203;DHT22;38173;52.850;6.970;2023-07-13T07:01:59;18.90;99.90
52203;DHT22;38173;52.850;6.970;2023-07-13T07:04:26;18.90;99.90
52203;DHT22;38173;52.850;6.970;2023-07-13T07:06:53;19.00;99.90
52203;DHT22;38173;52.850;6.970;2023-07-13T07:09:18;19.20;99.90
52203;DHT22;38173;52.850;6.970;2023-07-13T07:11:48;19.40;99.90
52203;DHT22;38173;52.850;6.970;2023-07-13T07:14:17;19.60;99.90
52203;DHT22;38173;52.850;6.970;2023-07-13T07:16:50;19.90;99.90
52203;DHT22;38173;52.850;6.970;2023-07-13T07:19:30;20.00;99.90
52203;DHT22;38173;52.850;6.970;2023-07-13T07:22:03;20.10;99.90
52203;DHT22;38173;52.850;6.970;2023-07-13T07:24:29;20.10;99.90
52203;DHT22;38173;52.850;6.970;2023-07-13T07:26:55;20.10;99.90
52203;DHT22;38173;52.850;6.970;2023-07-13T07:29:21;20.20;99.90
52203;DHT22;38173;52.850;6.970;2023-07-13T07:31:47;20.20;99.90
52203;DHT22;38173;52.850;6.970;2023-07-13T07:34:13;20.20;99.90
52203;DHT22;38173;52.850;6.970;2023-07-13T07:36:40;20.10;99.90
52203;DHT22;38173;52.850;6.970;2023-07-13T07:39:06;20.10;99.90
52203;DHT22;38173;52.850;6.970;2023-07-13T07:41:36;20.10;99.90
52203;DHT22;38173;52.850;6.970;2023-07-13T07:44:04;20.10;99.90
52203;DHT22;38173;52.850;6.970;2023-07-13T07:46:39;20.10;99.90
52203;DHT22;38173;52.850;6.970;2023-07-13T07:49:07;20.20;99.90
52203;DHT22;38173;52.850;6.970;2023-07-13T07:51:37;20.20;99.90
52203;DHT22;38173;52.850;6.970;2023-07-13T07:54:26;20.20;99.90
52203;DHT22;38173;52.850;6.970;2023-07-13T07:56:52;20.20;99.90
52203;DHT22;38173;52.850;6.970;2023-07-13T07:59:30;20.30;99.90
52203;DHT22;38173;52.850;6.970;2023-07-13T08:01:58;20.30;99.90
52203;DHT22;38173;52.850;6.970;2023-07-13T08:04:42;20.30;99.90
52203;DHT22;38173;52.850;6.970;2023-07-13T08:07:09;20.30;99.90
52203;DHT22;38173;52.850;6.970;2023-07-13T08:09:35;20.30;99.90
52203;DHT22;38173;52.850;6.970;2023-07-13T08:12:01;20.30;99.90
52203;DHT22;38173;52.850;6.970;2023-07-13T08:14:30;20.40;99.90
52203;DHT22;38173;52.850;6.970;2023-07-13T08:16:56;20.40;99.90
52203;DHT22;38173;52.850;6.970;2023-07-13T08:22:00;20.50;99.90
52203;DHT22;38173;52.850;6.970;2023-07-13T08:24:29;20.50;99.90
52203;DHT22;38173;52.850;6.970;2023-07-13T08:26:55;20.50;99.90
52203;DHT22;38173;52.850;6.970;2023-07-13T08:29:21;20.50;99.90
52203;DHT22;38173;52.850;6.970;2023-07-13T08:31:48;20.60;99.90
52203;DHT22;38173;52.850;6.970;2023-07-13T08:34:25;20.70;99.90
52203;DHT22;38173;52.850;6.970;2023-07-13T08:36:52;20.80;99.90
52203;DHT22;38173;52.850;6.970;2023-07-13T08:39:18;20.80;99.90
52203;DHT22;38173;52.850;6.970;2023-07-13T08:41:50;20.90;99.90
52203;DHT22;38173;52.850;6.970;2023-07-13T08:44:40;21.00;99.90
52203;DHT22;38173;52.850;6.970;2023-07-13T08:47:22;21.10;99.90
52203;DHT22;38173;52.850;6.970;2023-07-13T08:49:52;21.20;99.90
52203;DHT22;38173;52.850;6.970;2023-07-13T08:54:57;21.40;99.90
52203;DHT22;38173;52.850;6.970;2023-07-13T08:57:32;21.70;99.90
52203;DHT22;38173;52.850;6.970;2023-07-13T08:59:59;21.90;99.90
52203;DHT22;38173;52.850;6.970;2023-07-13T09:05:13;22.10;99.90
52203;DHT22;38173;52.850;6.970;2023-07-13T09:08:02;22.10;99.90
52203;DHT22;38173;52.850;6.970;2023-07-13T09:10:49;21.70;99.90
52203;DHT22;38173;52.850;6.970;2023-07-13T09:16:01;20.80;99.90
52203;DHT22;38173;52.850;6.970;2023-07-13T09:18:34;20.30;99.90
52203;DHT22;38173;52.850;6.970;2023-07-13T09:21:14;19.70;99.90
52203;DHT22;38173;52.850;6.970;2023-07-13T09:23:51;19.20;99.90
52203;DHT22;38173;52.850;6.970;2023-07-13T09:26:32;18.70;99.90
52203;DHT22;38173;52.850;6.970;2023-07-13T09:29:28;18.20;99.90
52203;DHT22;38173;52.850;6.970;2023-07-13T09:31:58;17.70;99.90
52203;DHT22;38173;52.850;6.970;2023-07-13T09:34:45;17.40;99.90
52203;DHT22;38173;52.850;6.970;2023-07-13T09:37:15;17.10;99.90
52203;DHT22;38173;52.850;6.970;2023-07-13T09:39:42;16.80;99.90
52203;DHT22;38173;52.850;6.970;2023-07-13T09:42:12;16.40;99.90
52203;DHT22;38173;52.850;6.970;2023-07-13T09:47:26;16.00;99.90
52203;DHT22;38173;52.850;6.970;2023-07-13T09:50:05;15.80;99.90
52203;DHT22;38173;52.850;6.970;2023-07-13T09:52:56;15.70;99.90
52203;DHT22;38173;52.850;6.970;2023-07-13T09:55:45;15.60;99.90
52203;DHT22;38173;52.850;6.970;2023-07-13T09:58:21;15.40;99.90
52203;DHT22;38173;52.850;6.970;2023-07-13T10:01:07;15.40;99.90
52203;DHT22;38173;52.850;6.970;2023-07-13T10:03:42;15.30;99.90
52203;DHT22;38173;52.850;6.970;2023-07-13T10:06:20;15.40;99.90
52203;DHT22;38173;52.850;6.970;2023-07-13T10:08:49;15.50;99.90
52203;DHT22;38173;52.850;6.970;2023-07-13T10:11:23;15.60;99.90
52203;DHT22;38173;52.850;6.970;2023-07-13T10:13:58;15.70;99.90
52203;DHT22;38173;52.850;6.970;2023-07-13T10:16:27;15.90;99.90
52203;DHT22;38173;52.850;6.970;2023-07-13T10:19:26;16.10;99.90
52203;DHT22;38173;52.850;6.970;2023-07-13T10:21:57;16.30;99.90
52203;DHT22;38173;52.850;6.970;2023-07-13T10:24:42;16.50;99.90
52203;DHT22;38173;52.850;6.970;2023-07-13T10:27:19;16.70;99.90
52203;DHT22;38173;52.850;6.970;2023-07-13T10:30:19;16.90;99.90
52203;DHT22;38173;52.850;6.970;2023-07-13T10:32:53;17.00;99.90
52203;DHT22;38173;52.850;6.970;2023-07-13T10:35:21;17.40;99.90
52203;DHT22;38173;52.850;6.970;2023-07-13T10:38:21;17.70;99.90
52203;DHT22;38173;52.850;6.970;2023-07-13T10:41:06;18.00;99.90
52203;DHT22;38173;52.850;6.970;2023-07-13T10:43:42;18.00;99.90
52203;DHT22;38173;52.850;6.970;2023-07-13T10:46:11;18.20;99.90
52203;DHT22;38173;52.850;6.970;2023-07-13T10:48:42;18.50;99.90
52203;DHT22;38173;52.850;6.970;2023-07-13T10:51:10;18.80;99.90
52203;DHT22;38173;52.850;6.970;2023-07-13T10:53:38;19.00;99.90
52203;DHT22;38173;52.850;6.970;2023-07-13T10:58:43;19.60;99.90
52203;DHT22;38173;52.850;6.970;2023-07-13T11:01:17;19.90;99.90
52203;DHT22;38173;52.850;6.970;2023-07-13T11:03:50;20.10;99.90
52203;DHT22;38173;52.850;6.970;2023-07-13T11:08:54;20.50;99.90
52203;DHT22;38173;52.850;6.970;2023-07-13T11:14:01;20.80;99.90
52203;DHT22;38173;52.850;6.970;2023-07-13T11:16:44;20.80;99.90
52203;DHT22;38173;52.850;6.970;2023-07-13T11:27:35;21.20;99.90
52203;DHT22;38173;52.850;6.970;2023-07-13T11:30:22;21.50;99.90
52203;DHT22;38173;52.850;6.970;2023-07-13T11:35:36;22.00;99.90
52203;DHT22;38173;52.850;6.970;2023-07-13T11:38:14;22.00;99.90
52203;DHT22;38173;52.850;6.970;2023-07-13T11:40:42;22.00;99.90
52203;DHT22;38173;52.850;6.970;2023-07-13T11:43:14;21.90;99.90
52203;DHT22;38173;52.850;6.970;2023-07-13T11:45:41;21.70;99.90
52203;DHT22;38173;52.850;6.970;2023-07-13T11:48:28;21.40;99.90
52203;DHT22;38173;52.850;6.970;2023-07-13T11:51:04;20.90;99.90
52203;DHT22;38173;52.850;6.970;2023-07-13T11:53:45;20.50;99.90
52203;DHT22;38173;52.850;6.970;2023-07-13T11:56:14;20.00;99.90
52203;DHT22;38173;52.850;6.970;2023-07-13T11:58:51;19.70;99.90
52203;DHT22;38173;52.850;6.970;2023-07-13T12:01:28;19.60;99.90
52203;DHT22;38173;52.850;6.970;2023-07-13T12:04:03;19.40;99.90
52203;DHT22;38173;52.850;6.970;2023-07-13T12:06:31;19.30;99.90
52203;DHT22;38173;52.850;6.970;2023-07-13T12:09:03;19.20;99.90
52203;DHT22;38173;52.850;6.970;2023-07-13T12:11:40;19.00;99.90
52203;DHT22;38173;52.850;6.970;2023-07-13T12:14:16;19.00;99.90
52203;DHT22;38173;52.850;6.970;2023-07-13T12:16:42;19.00;99.90
52203;DHT22;38173;52.850;6.970;2023-07-13T12:19:18;19.10;99.90
52203;DHT22;38173;52.850;6.970;2023-07-13T12:21:46;19.40;99.90
52203;DHT22;38173;52.850;6.970;2023-07-13T12:24:18;19.70;99.90
52203;DHT22;38173;52.850;6.970;2023-07-13T12:26:48;19.90;99.90
52203;DHT22;38173;52.850;6.970;2023-07-13T12:29:17;20.00;99.90
52203;DHT22;38173;52.850;6.970;2023-07-13T12:31:46;20.00;99.90
52203;DHT22;38173;52.850;6.970;2023-07-13T12:34:17;20.00;99.90
52203;DHT22;38173;52.850;6.970;2023-07-13T12:37:01;20.20;99.90
52203;DHT22;38173;52.850;6.970;2023-07-13T12:39:34;20.30;99.90
52203;DHT22;38173;52.850;6.970;2023-07-13T12:42:20;20.50;99.90
52203;DHT22;38173;52.850;6.970;2023-07-13T12:44:48;20.70;99.90
52203;DHT22;38173;52.850;6.970;2023-07-13T12:47:15;20.70;99.90
52203;DHT22;38173;52.850;6.970;2023-07-13T12:49:47;20.70;99.90
52203;DHT22;38173;52.850;6.970;2023-07-13T12:52:16;20.60;99.90
52203;DHT22;38173;52.850;6.970;2023-07-13T12:54:55;20.80;99.90
52203;DHT22;38173;52.850;6.970;2023-07-13T12:57:27;21.20;99.90
52203;DHT22;38173;52.850;6.970;2023-07-13T12:59:57;21.80;99.90
52203;DHT22;38173;52.850;6.970;2023-07-13T13:02:30;22.10;99.90
52203;DHT22;38173;52.850;6.970;2023-07-13T13:04:57;22.10;99.90
52203;DHT22;38173;52.850;6.970;2023-07-13T13:07:24;22.00;99.90
52203;DHT22;38173;52.850;6.970;2023-07-13T13:09:53;22.20;99.90
52203;DHT22;38173;52.850;6.970;2023-07-13T13:12:20;22.60;99.90
52203;DHT22;38173;52.850;6.970;2023-07-13T13:14:46;23.00;99.90
52203;DHT22;38173;52.850;6.970;2023-07-13T13:17:19;23.30;99.90
52203;DHT22;38173;52.850;6.970;2023-07-13T13:19:46;23.70;99.90
52203;DHT22;38173;52.850;6.970;2023-07-13T13:22:15;24.10;99.90
52203;DHT22;38173;52.850;6.970;2023-07-13T13:24:41;24.80;99.90
52203;DHT22;38173;52.850;6.970;2023-07-13T13:27:20;25.10;99.90
52203;DHT22;38173;52.850;6.970;2023-07-13T13:29:53;25.10;99.90
52203;DHT22;38173;52.850;6.970;2023-07-13T13:32:20;25.10;99.90
52203;DHT22;38173;52.850;6.970;2023-07-13T13:35:03;25.20;99.90
52203;DHT22;38173;52.850;6.970;2023-07-13T13:37:33;25.10;99.90
52203;DHT22;38173;52.850;6.970;2023-07-13T13:39:59;25.00;99.90
52203;DHT22;38173;52.850;6.970;2023-07-13T13:42:29;24.90;99.90
52203;DHT22;38173;52.850;6.970;2023-07-13T13:44:58;25.00;99.90
52203;DHT22;38173;52.850;6.970;2023-07-13T13:47:30;25.10;99.90
52203;DHT22;38173;52.850;6.970;2023-07-13T13:49:59;25.30;99.90
52203;DHT22;38173;52.850;6.970;2023-07-13T13:52:58;25.30;99.90
52203;DHT22;38173;52.850;6.970;2023-07-13T13:55:28;25.10;99.90
52203;DHT22;38173;52.850;6.970;2023-07-13T13:57:54;24.90;99.90
52203;DHT22;38173;52.850;6.970;2023-07-13T14:00:20;24.60;99.90
52203;DHT22;38173;52.850;6.970;2023-07-13T14:03:16;24.60;99.90
52203;DHT22;38173;52.850;6.970;2023-07-13T14:05:47;25.20;99.90
52203;DHT22;38173;52.850;6.970;2023-07-13T14:08:16;25.90;99.90
52203;DHT22;38173;52.850;6.970;2023-07-13T14:10:54;26.20;99.90
52203;DHT22;38173;52.850;6.970;2023-07-13T14:13:27;26.30;99.90
52203;DHT22;38173;52.850;6.970;2023-07-13T14:15:54;26.10;99.90
52203;DHT22;38173;52.850;6.970;2023-07-13T14:18:21;25.80;99.90
52203;DHT22;38173;52.850;6.970;2023-07-13T14:20:50;25.80;99.90
52203;DHT22;38173;52.850;6.970;2023-07-13T14:26:12;25.10;99.90
52203;DHT22;38173;52.850;6.970;2023-07-13T14:28:43;25.10;99.90
52203;DHT22;38173;52.850;6.970;2023-07-13T14:31:14;25.70;99.90
52203;DHT22;38173;52.850;6.970;2023-07-13T14:33:47;26.20;99.20
52203;DHT22;38173;52.850;6.970;2023-07-13T14:36:20;26.50;99.00
52203;DHT22;38173;52.850;6.970;2023-07-13T14:38:47;26.80;98.20
52203;DHT22;38173;52.850;6.970;2023-07-13T14:41:13;27.10;97.10
52203;DHT22;38173;52.850;6.970;2023-07-13T14:43:39;27.60;95.70
52203;DHT22;38173;52.850;6.970;2023-07-13T14:46:05;28.20;97.40
52203;DHT22;38173;52.850;6.970;2023-07-13T14:48:31;28.50;91.10
52203;DHT22;38173;52.850;6.970;2023-07-13T14:50:58;28.70;92.20
52203;DHT22;38173;52.850;6.970;2023-07-13T14:53:26;29.10;84.40
52203;DHT22;38173;52.850;6.970;2023-07-13T14:55:59;29.50;88.30
52203;DHT22;38173;52.850;6.970;2023-07-13T14:58:25;29.60;73.20
52203;DHT22;38173;52.850;6.970;2023-07-13T15:00:50;29.30;77.70
52203;DHT22;38173;52.850;6.970;2023-07-13T15:03:23;28.90;77.00
52203;DHT22;38173;52.850;6.970;2023-07-13T15:05:49;28.60;80.90
52203;DHT22;38173;52.850;6.970;2023-07-13T15:08:16;28.50;81.80
52203;DHT22;38173;52.850;6.970;2023-07-13T15:10:44;28.90;84.00
52203;DHT22;38173;52.850;6.970;2023-07-13T15:13:19;29.10;73.30
52203;DHT22;38173;52.850;6.970;2023-07-13T15:15:51;29.20;82.00
52203;DHT22;38173;52.850;6.970;2023-07-13T15:18:22;29.90;82.90
52203;DHT22;38173;52.850;6.970;2023-07-13T15:20:51;30.10;78.50
52203;DHT22;38173;52.850;6.970;2023-07-13T15:23:23;30.30;80.10
52203;DHT22;38173;52.850;6.970;2023-07-13T15:25:50;30.80;79.40
52203;DHT22;38173;52.850;6.970;2023-07-13T15:28:21;31.30;70.20
52203;DHT22;38173;52.850;6.970;2023-07-13T15:30:51;31.50;71.60
52203;DHT22;38173;52.850;6.970;2023-07-13T15:33:35;31.90;75.70
52203;DHT22;38173;52.850;6.970;2023-07-13T15:36:06;31.70;70.00
52203;DHT22;38173;52.850;6.970;2023-07-13T15:38:36;30.80;69.50
52203;DHT22;38173;52.850;6.970;2023-07-13T15:41:28;29.90;73.20
52203;DHT22;38173;52.850;6.970;2023-07-13T15:46:47;30.30;71.40
52203;DHT22;38173;52.850;6.970;2023-07-13T15:49:14;30.20;73.60
52203;DHT22;38173;52.850;6.970;2023-07-13T15:51:43;30.40;70.60
52203;DHT22;38173;52.850;6.970;2023-07-13T15:54:17;31.00;73.80
52203;DHT22;38173;52.850;6.970;2023-07-13T15:56:54;31.70;67.40
52203;DHT22;38173;52.850;6.970;2023-07-13T15:59:40;32.20;66.60
52203;DHT22;38173;52.850;6.970;2023-07-13T16:02:17;32.60;62.20
52203;DHT22;38173;52.850;6.970;2023-07-13T16:04:44;32.00;64.00
52203;DHT22;38173;52.850;6.970;2023-07-13T16:07:15;31.90;69.40
52203;DHT22;38173;52.850;6.970;2023-07-13T16:09:45;32.10;67.30
52203;DHT22;38173;52.850;6.970;2023-07-13T16:12:15;32.30;68.20
52203;DHT22;38173;52.850;6.970;2023-07-13T16:14:41;32.50;68.30
52203;DHT22;38173;52.850;6.970;2023-07-13T16:17:14;32.60;64.40
52203;DHT22;38173;52.850;6.970;2023-07-13T16:19:41;31.70;61.30
52203;DHT22;38173;52.850;6.970;2023-07-13T16:22:15;30.40;66.50
52203;DHT22;38173;52.850;6.970;2023-07-13T16:24:42;29.90;70.40
52203;DHT22;38173;52.850;6.970;2023-07-13T16:27:11;30.40;70.30
52203;DHT22;38173;52.850;6.970;2023-07-13T16:29:41;31.00;69.30
52203;DHT22;38173;52.850;6.970;2023-07-13T16:32:11;31.70;67.40